sensor_id;sensor_type;location;lat;lon;timestamp;P1;durP1;ratioP1;P2;durP2;ratioP2
5121;SDS011;2563;52.242;7.956;2024-03-02T00:01:51;4.83;;;2.30;;
5121;SDS011;2563;52.242;7.956;2024-03-02T00:04:16;4.97;;;2.67;;
5121;SDS011;2563;52.242;7.956;2024-03-02T00:06:42;7.07;;;2.30;;
5121;SDS011;2563;52.242;7.956;2024-03-02T00:09:08;5.03;;;2.10;;
5121;SDS011;2563;52.242;7.956;2024-03-02T00:11:37;6.10;;;2.17;;
5121;SDS011;2563;52.242;7.956;2024-03-02T00:14:03;5.33;;;2.50;;
5121;SDS011;2563;52.242;7.956;2024-03-02T00:16:31;5.37;;;2.67;;
5121;SDS011;2563;52.242;7.956;2024-03-02T00:19:03;5.07;;;2.30;;
5121;SDS011;2563;52.242;7.956;2024-03-02T00:21:31;6.80;;;2.40;;
5121;SDS011;2563;52.242;7.956;2024-03-02T00:23:57;5.03;;;2.30;;
5121;SDS011;2563;52.242;7.956;2024-03-02T00:26:23;5.20;;;2.43;;
5121;SDS011;2563;52.242;7.956;2024-03-02T00:28:48;5.80;;;2.13;;
5121;SDS011;2563;52.242;7.956;2024-03-02T00:31:19;6.47;;;2.50;;
5121;SDS011;2563;52.242;7.956;2024-03-02T00:33:45;5.87;;;2.73;;
5121;SDS011;2563;52.242;7.956;2024-03-02T00:36:13;5.50;;;2.60;;
5121;SDS011;2563;52.242;7.956;2024-03-02T00:38:50;6.70;;;2.90;;
5121;SDS011;2563;52.242;7.956;2024-03-02T00:46:24;7.57;;;3.30;;
5121;SDS011;2563;52.242;7.956;2024-03-02T00:48:54;5.50;;;2.73;;
5121;SDS011;2563;52.242;7.956;2024-03-02T00:51:21;5.90;;;2.80;;
5121;SDS011;2563;52.242;7.956;2024-03-02T00:53:48;5.10;;;2.83;;
5121;SDS011;2563;52.242;7.956;2024-03-02T00:56:14;7.63;;;3.10;;
5121;SDS011;2563;52.242;7.956;2024-03-02T00:58:39;7.03;;;3.13;;
5121;SDS011;2563;52.242;7.956;2024-03-02T01:01:05;8.07;;;3.60;;
5121;SDS011;2563;52.242;7.956;2024-03-02T01:03:32;7.10;;;3.30;;
5121;SDS011;2563;52.242;7.956;2024-03-02T01:05:57;7.73;;;3.50;;
5121;SDS011;2563;52.242;7.956;2024-03-02T01:08:23;6.43;;;3.10;;
5121;SDS011;2563;52.242;7.956;2024-03-02T01:10:49;6.77;;;3.20;;
5121;SDS011;2563;52.242;7.956;2024-03-02T01:13:14;7.83;;;3.47;;
5121;SDS011;2563;52.242;7.956;2024-03-02T01:15:40;8.70;;;3.67;;
5121;SDS011;2563;52.242;7.956;2024-03-02T01:18:05;8.27;;;3.37;;
5121;SDS011;2563;52.242;7.956;2024-03-02T01:20:31;8.23;;;2.70;;
5121;SDS011;2563;52.242;7.956;2024-03-02T01:22:56;7.83;;;2.90;;
5121;SDS011;2563;52.242;7.956;2024-03-02T01:25:22;7.83;;;3.23;;
5121;SDS011;2563;52.242;7.956;2024-03-02T01:27:47;8.07;;;3.20;;
5121;SDS011;2563;52.242;7.956;2024-03-02T01:30:12;5.50;;;2.70;;
5121;SDS011;2563;52.242;7.956;2024-03-02T01:32:38;10.13;;;2.73;;
5121;SDS011;2563;52.242;7.956;2024-03-02T01:35:04;6.03;;;3.00;;
5121;SDS011;2563;52.242;7.956;2024-03-02T01:37:30;6.40;;;3.13;;
5121;SDS011;2563;52.242;7.956;2024-03-02T01:39:55;7.70;;;3.30;;
5121;SDS011;2563;52.242;7.956;2024-03-02T01:42:21;5.90;;;2.87;;
5121;SDS011;2563;52.242;7.956;2024-03-02T01:44:47;7.67;;;2.20;;
5121;SDS011;2563;52.242;7.956;2024-03-02T01:47:12;6.80;;;2.87;;
5121;SDS011;2563;52.242;7.956;2024-03-02T01:49:38;6.03;;;2.83;;
5121;SDS011;2563;52.242;7.956;2024-03-02T01:52:05;6.83;;;3.20;;
5121;SDS011;2563;52.242;7.956;2024-03-02T01:54:31;6.63;;;3.00;;
5121;SDS011;2563;52.242;7.956;2024-03-02T01:56:56;8.10;;;3.40;;
5121;SDS011;2563;52.242;7.956;2024-03-02T01:59:22;6.87;;;3.27;;
5121;SDS011;2563;52.242;7.956;2024-03-02T02:01:47;5.47;;;2.90;;
5121;SDS011;2563;52.242;7.956;2024-03-02T02:04:13;5.40;;;2.73;;
5121;SDS011;2563;52.242;7.956;2024-03-02T02:06:38;5.43;;;2.50;;
5121;SDS011;2563;52.242;7.956;2024-03-02T02:09:04;10.40;;;2.87;;
5121;SDS011;2563;52.242;7.956;2024-03-02T02:11:29;5.97;;;3.30;;
5121;SDS011;2563;52.242;7.956;2024-03-02T02:13:55;5.87;;;2.67;;
5121;SDS011;2563;52.242;7.956;2024-03-02T02:16:23;7.53;;;3.40;;
5121;SDS011;2563;52.242;7.956;2024-03-02T02:18:48;6.20;;;2.37;;
5121;SDS011;2563;52.242;7.956;2024-03-02T02:21:14;5.00;;;2.60;;
5121;SDS011;2563;52.242;7.956;2024-03-02T02:23:39;7.30;;;3.40;;
5121;SDS011;2563;52.242;7.956;2024-03-02T02:26:04;5.67;;;2.70;;
5121;SDS011;2563;52.242;7.956;2024-03-02T02:28:30;6.37;;;2.80;;
5121;SDS011;2563;52.242;7.956;2024-03-02T02:30:55;6.63;;;2.83;;
5121;SDS011;2563;52.242;7.956;2024-03-02T02:33:21;6.40;;;2.83;;
5121;SDS011;2563;52.242;7.956;2024-03-02T02:35:47;5.60;;;2.77;;
5121;SDS011;2563;52.242;7.956;2024-03-02T02:38:12;5.20;;;2.80;;
5121;SDS011;2563;52.242;7.956;2024-03-02T02:40:37;6.23;;;3.10;;
5121;SDS011;2563;52.242;7.956;2024-03-02T02:43:03;6.07;;;2.60;;
5121;SDS011;2563;52.242;7.956;2024-03-02T02:45:28;6.00;;;2.90;;
5121;SDS011;2563;52.242;7.956;2024-03-02T02:47:54;5.70;;;3.07;;
5121;SDS011;2563;52.242;7.956;2024-03-02T02:50:19;5.20;;;2.67;;
5121;SDS011;2563;52.242;7.956;2024-03-02T02:52:45;5.33;;;2.70;;
5121;SDS011;2563;52.242;7.956;2024-03-02T02:55:12;6.47;;;3.17;;
5121;SDS011;2563;52.242;7.956;2024-03-02T02:57:39;8.90;;;3.30;;
5121;SDS011;2563;52.242;7.956;2024-03-02T03:00:06;5.73;;;2.67;;
5121;SDS011;2563;52.242;7.956;2024-03-02T03:02:38;5.43;;;2.80;;
5121;SDS011;2563;52.242;7.956;2024-03-02T03:05:08;7.17;;;2.70;;
5121;SDS011;2563;52.242;7.956;2024-03-02T03:07:37;6.80;;;2.77;;
5121;SDS011;2563;52.242;7.956;2024-03-02T03:10:04;6.00;;;3.03;;
5121;SDS011;2563;52.242;7.956;2024-03-02T03:12:31;6.27;;;2.67;;
5121;SDS011;2563;52.242;7.956;2024-03-02T03:14:57;6.87;;;2.97;;
5121;SDS011;2563;52.242;7.956;2024-03-02T03:17:22;6.53;;;3.00;;
5121;SDS011;2563;52.242;7.956;2024-03-02T03:19:48;5.23;;;2.83;;
5121;SDS011;2563;52.242;7.956;2024-03-02T03:22:14;6.37;;;3.13;;
5121;SDS011;2563;52.242;7.956;2024-03-02T03:24:39;6.23;;;2.90;;
5121;SDS011;2563;52.242;7.956;2024-03-02T03:27:05;6.03;;;3.30;;
5121;SDS011;2563;52.242;7.956;2024-03-02T03:29:30;8.13;;;3.03;;
5121;SDS011;2563;52.242;7.956;2024-03-02T03:31:55;6.23;;;3.37;;
5121;SDS011;2563;52.242;7.956;2024-03-02T03:34:21;7.90;;;2.97;;
5121;SDS011;2563;52.242;7.956;2024-03-02T03:36:46;5.37;;;3.03;;
5121;SDS011;2563;52.242;7.956;2024-03-02T03:39:11;6.63;;;3.07;;
5121;SDS011;2563;52.242;7.956;2024-03-02T03:41:37;7.10;;;3.30;;
5121;SDS011;2563;52.242;7.956;2024-03-02T03:44:02;8.13;;;3.33;;
5121;SDS011;2563;52.242;7.956;2024-03-02T03:46:28;6.57;;;3.27;;
5121;SDS011;2563;52.242;7.956;2024-03-02T03:48:54;7.00;;;3.50;;
5121;SDS011;2563;52.242;7.956;2024-03-02T03:51:20;6.53;;;3.47;;
5121;SDS011;2563;52.242;7.956;2024-03-02T03:53:47;9.23;;;4.07;;
5121;SDS011;2563;52.242;7.956;2024-03-02T03:56:13;7.60;;;3.70;;
5121;SDS011;2563;52.242;7.956;2024-03-02T03:58:38;7.90;;;4.00;;
5121;SDS011;2563;52.242;7.956;2024-03-02T04:01:04;6.80;;;3.40;;
5121;SDS011;2563;52.242;7.956;2024-03-02T04:03:29;7.00;;;3.53;;
5121;SDS011;2563;52.242;7.956;2024-03-02T04:05:55;8.83;;;4.47;;
5121;SDS011;2563;52.242;7.956;2024-03-02T04:08:21;9.17;;;4.00;;
5121;SDS011;2563;52.242;7.956;2024-03-02T04:10:46;11.53;;;3.47;;
5121;SDS011;2563;52.242;7.956;2024-03-02T04:13:11;11.43;;;4.00;;
5121;SDS011;2563;52.242;7.956;2024-03-02T04:15:37;9.63;;;4.13;;
5121;SDS011;2563;52.242;7.956;2024-03-02T04:18:02;8.57;;;4.40;;
5121;SDS011;2563;52.242;7.956;2024-03-02T04:20:28;6.70;;;3.63;;
5121;SDS011;2563;52.242;7.956;2024-03-02T04:22:54;8.70;;;3.87;;
5121;SDS011;2563;52.242;7.956;2024-03-02T04:25:20;8.07;;;3.60;;
5121;SDS011;2563;52.242;7.956;2024-03-02T04:27:45;11.80;;;4.23;;
5121;SDS011;2563;52.242;7.956;2024-03-02T04:30:10;10.20;;;4.07;;
5121;SDS011;2563;52.242;7.956;2024-03-02T04:32:36;7.97;;;3.60;;
5121;SDS011;2563;52.242;7.956;2024-03-02T04:35:02;7.80;;;3.80;;
5121;SDS011;2563;52.242;7.956;2024-03-02T04:37:27;5.50;;;3.10;;
5121;SDS011;2563;52.242;7.956;2024-03-02T04:39:52;9.30;;;4.20;;
5121;SDS011;2563;52.242;7.956;2024-03-02T04:42:18;11.43;;;4.40;;
5121;SDS011;2563;52.242;7.956;2024-03-02T04:44:43;8.20;;;3.60;;
5121;SDS011;2563;52.242;7.956;2024-03-02T04:47:08;6.70;;;3.50;;
5121;SDS011;2563;52.242;7.956;2024-03-02T04:49:34;11.50;;;4.60;;
5121;SDS011;2563;52.242;7.956;2024-03-02T04:51:59;11.53;;;4.70;;
5121;SDS011;2563;52.242;7.956;2024-03-02T04:54:24;8.37;;;3.90;;
5121;SDS011;2563;52.242;7.956;2024-03-02T04:56:50;7.80;;;4.27;;
5121;SDS011;2563;52.242;7.956;2024-03-02T04:59:18;16.70;;;4.10;;
5121;SDS011;2563;52.242;7.956;2024-03-02T05:01:44;11.27;;;5.00;;
5121;SDS011;2563;52.242;7.956;2024-03-02T05:04:10;7.77;;;4.23;;
5121;SDS011;2563;52.242;7.956;2024-03-02T05:06:39;8.73;;;4.70;;
5121;SDS011;2563;52.242;7.956;2024-03-02T05:09:05;9.73;;;4.00;;
5121;SDS011;2563;52.242;7.956;2024-03-02T05:11:31;9.57;;;4.43;;
5121;SDS011;2563;52.242;7.956;2024-03-02T05:14:18;10.67;;;4.83;;
5121;SDS011;2563;52.242;7.956;2024-03-02T05:16:44;9.27;;;4.30;;
5121;SDS011;2563;52.242;7.956;2024-03-02T05:19:09;15.30;;;4.67;;
5121;SDS011;2563;52.242;7.956;2024-03-02T05:21:35;8.93;;;4.40;;
5121;SDS011;2563;52.242;7.956;2024-03-02T05:24:00;8.80;;;4.37;;
5121;SDS011;2563;52.242;7.956;2024-03-02T05:26:26;10.20;;;4.73;;
5121;SDS011;2563;52.242;7.956;2024-03-02T05:28:51;9.20;;;4.63;;
5121;SDS011;2563;52.242;7.956;2024-03-02T05:31:17;9.40;;;4.97;;
5121;SDS011;2563;52.242;7.956;2024-03-02T05:33:43;10.37;;;4.63;;
5121;SDS011;2563;52.242;7.956;2024-03-02T05:36:08;10.93;;;4.90;;
5121;SDS011;2563;52.242;7.956;2024-03-02T05:38:34;11.23;;;4.80;;
5121;SDS011;2563;52.242;7.956;2024-03-02T05:41:00;16.00;;;5.00;;
5121;SDS011;2563;52.242;7.956;2024-03-02T05:43:25;16.17;;;4.90;;
5121;SDS011;2563;52.242;7.956;2024-03-02T05:45:51;9.50;;;4.70;;
5121;SDS011;2563;52.242;7.956;2024-03-02T05:48:16;8.00;;;4.23;;
5121;SDS011;2563;52.242;7.956;2024-03-02T05:50:41;14.80;;;5.27;;
5121;SDS011;2563;52.242;7.956;2024-03-02T05:53:07;12.30;;;5.07;;
5121;SDS011;2563;52.242;7.956;2024-03-02T05:55:32;12.57;;;5.50;;
5121;SDS011;2563;52.242;7.956;2024-03-02T05:57:58;10.60;;;4.90;;
5121;SDS011;2563;52.242;7.956;2024-03-02T06:00:23;11.50;;;5.83;;
5121;SDS011;2563;52.242;7.956;2024-03-02T06:02:48;10.60;;;4.87;;
5121;SDS011;2563;52.242;7.956;2024-03-02T06:05:14;11.73;;;6.10;;
5121;SDS011;2563;52.242;7.956;2024-03-02T06:07:41;11.83;;;5.57;;
5121;SDS011;2563;52.242;7.956;2024-03-02T06:10:06;9.73;;;4.83;;
5121;SDS011;2563;52.242;7.956;2024-03-02T06:12:33;10.23;;;5.00;;
5121;SDS011;2563;52.242;7.956;2024-03-02T06:14:59;11.33;;;5.80;;
5121;SDS011;2563;52.242;7.956;2024-03-02T06:17:24;11.90;;;5.93;;
5121;SDS011;2563;52.242;7.956;2024-03-02T06:19:50;13.00;;;5.90;;
5121;SDS011;2563;52.242;7.956;2024-03-02T06:22:15;13.80;;;6.33;;
5121;SDS011;2563;52.242;7.956;2024-03-02T06:24:40;13.53;;;5.63;;
5121;SDS011;2563;52.242;7.956;2024-03-02T06:27:06;11.20;;;5.33;;
5121;SDS011;2563;52.242;7.956;2024-03-02T06:29:34;10.83;;;5.37;;
5121;SDS011;2563;52.242;7.956;2024-03-02T06:31:59;12.27;;;5.30;;
5121;SDS011;2563;52.242;7.956;2024-03-02T06:34:25;11.60;;;5.43;;
5121;SDS011;2563;52.242;7.956;2024-03-02T06:36:50;13.47;;;5.87;;
5121;SDS011;2563;52.242;7.956;2024-03-02T06:39:16;11.20;;;5.80;;
5121;SDS011;2563;52.242;7.956;2024-03-02T06:41:41;10.00;;;5.10;;
5121;SDS011;2563;52.242;7.956;2024-03-02T06:44:12;11.47;;;5.47;;
5121;SDS011;2563;52.242;7.956;2024-03-02T06:46:37;13.40;;;5.77;;
5121;SDS011;2563;52.242;7.956;2024-03-02T06:49:02;15.00;;;7.80;;
5121;SDS011;2563;52.242;7.956;2024-03-02T06:51:29;15.30;;;6.30;;
5121;SDS011;2563;52.242;7.956;2024-03-02T06:53:54;23.83;;;8.70;;
5121;SDS011;2563;52.242;7.956;2024-03-02T06:56:20;49.73;;;13.73;;
5121;SDS011;2563;52.242;7.956;2024-03-02T06:58:45;22.00;;;8.50;;
5121;SDS011;2563;52.242;7.956;2024-03-02T07:01:11;13.90;;;6.40;;
5121;SDS011;2563;52.242;7.956;2024-03-02T07:03:37;15.50;;;7.33;;
5121;SDS011;2563;52.242;7.956;2024-03-02T07:06:04;13.80;;;7.00;;
5121;SDS011;2563;52.242;7.956;2024-03-02T07:08:30;18.83;;;7.40;;
5121;SDS011;2563;52.242;7.956;2024-03-02T07:10:55;13.60;;;6.30;;
5121;SDS011;2563;52.242;7.956;2024-03-02T07:13:21;12.67;;;5.63;;
5121;SDS011;2563;52.242;7.956;2024-03-02T07:15:47;14.57;;;6.47;;
5121;SDS011;2563;52.242;7.956;2024-03-02T07:18:27;11.03;;;5.70;;
5121;SDS011;2563;52.242;7.956;2024-03-02T07:20:53;20.17;;;8.03;;
5121;SDS011;2563;52.242;7.956;2024-03-02T07:23:18;16.33;;;6.43;;
5121;SDS011;2563;52.242;7.956;2024-03-02T07:25:45;11.97;;;5.93;;
5121;SDS011;2563;52.242;7.956;2024-03-02T07:28:11;14.17;;;5.93;;
5121;SDS011;2563;52.242;7.956;2024-03-02T07:30:36;13.20;;;6.53;;
5121;SDS011;2563;52.242;7.956;2024-03-02T07:33:04;13.40;;;5.77;;
5121;SDS011;2563;52.242;7.956;2024-03-02T07:35:30;12.90;;;6.10;;
5121;SDS011;2563;52.242;7.956;2024-03-02T07:37:56;13.40;;;6.00;;
5121;SDS011;2563;52.242;7.956;2024-03-02T07:40:22;17.10;;;8.00;;
5121;SDS011;2563;52.242;7.956;2024-03-02T07:42:47;15.50;;;7.47;;
5121;SDS011;2563;52.242;7.956;2024-03-02T07:45:13;17.40;;;9.33;;
5121;SDS011;2563;52.242;7.956;2024-03-02T07:47:38;14.93;;;6.30;;
5121;SDS011;2563;52.242;7.956;2024-03-02T07:50:04;14.63;;;7.17;;
5121;SDS011;2563;52.242;7.956;2024-03-02T07:52:31;12.30;;;6.00;;
5121;SDS011;2563;52.242;7.956;2024-03-02T07:54:57;13.43;;;5.60;;
5121;SDS011;2563;52.242;7.956;2024-03-02T07:57:22;12.60;;;6.00;;
5121;SDS011;2563;52.242;7.956;2024-03-02T07:59:48;9.83;;;5.70;;
5121;SDS011;2563;52.242;7.956;2024-03-02T08:02:14;11.70;;;5.47;;
5121;SDS011;2563;52.242;7.956;2024-03-02T08:04:40;14.17;;;6.63;;
5121;SDS011;2563;52.242;7.956;2024-03-02T08:07:06;10.93;;;5.13;;
5121;SDS011;2563;52.242;7.956;2024-03-02T08:09:31;11.73;;;5.60;;
5121;SDS011;2563;52.242;7.956;2024-03-02T08:11:56;13.47;;;6.57;;
5121;SDS011;2563;52.242;7.956;2024-03-02T08:14:23;12.50;;;5.80;;
5121;SDS011;2563;52.242;7.956;2024-03-02T08:16:48;13.20;;;6.27;;
5121;SDS011;2563;52.242;7.956;2024-03-02T08:19:14;11.73;;;5.47;;
5121;SDS011;2563;52.242;7.956;2024-03-02T08:21:40;17.20;;;6.43;;
5121;SDS011;2563;52.242;7.956;2024-03-02T08:24:05;11.27;;;6.17;;
5121;SDS011;2563;52.242;7.956;2024-03-02T08:26:31;12.27;;;5.90;;
5121;SDS011;2563;52.242;7.956;2024-03-02T08:28:57;10.57;;;5.67;;
5121;SDS011;2563;52.242;7.956;2024-03-02T08:31:29;11.60;;;5.63;;
5121;SDS011;2563;52.242;7.956;2024-03-02T08:33:54;9.60;;;5.53;;
5121;SDS011;2563;52.242;7.956;2024-03-02T08:36:21;12.60;;;5.57;;
5121;SDS011;2563;52.242;7.956;2024-03-02T08:38:48;10.00;;;5.13;;
5121;SDS011;2563;52.242;7.956;2024-03-02T08:41:14;11.10;;;5.23;;
5121;SDS011;2563;52.242;7.956;2024-03-02T08:43:41;10.27;;;4.57;;
5121;SDS011;2563;52.242;7.956;2024-03-02T08:46:07;10.00;;;5.03;;
5121;SDS011;2563;52.242;7.956;2024-03-02T08:48:33;9.33;;;5.17;;
5121;SDS011;2563;52.242;7.956;2024-03-02T08:50:59;12.50;;;5.30;;
5121;SDS011;2563;52.242;7.956;2024-03-02T08:53:24;10.07;;;5.17;;
5121;SDS011;2563;52.242;7.956;2024-03-02T08:55:50;12.60;;;5.83;;
5121;SDS011;2563;52.242;7.956;2024-03-02T08:58:15;10.60;;;5.00;;
5121;SDS011;2563;52.242;7.956;2024-03-02T09:00:41;9.17;;;4.67;;
5121;SDS011;2563;52.242;7.956;2024-03-02T09:03:07;8.67;;;4.33;;
5121;SDS011;2563;52.242;7.956;2024-03-02T09:05:32;9.43;;;4.80;;
5121;SDS011;2563;52.242;7.956;2024-03-02T09:07:58;7.73;;;4.57;;
5121;SDS011;2563;52.242;7.956;2024-03-02T09:10:23;8.30;;;4.77;;
5121;SDS011;2563;52.242;7.956;2024-03-02T09:12:48;10.33;;;5.67;;
5121;SDS011;2563;52.242;7.956;2024-03-02T09:15:14;10.40;;;5.43;;
5121;SDS011;2563;52.242;7.956;2024-03-02T09:17:39;9.23;;;5.17;;
5121;SDS011;2563;52.242;7.956;2024-03-02T09:20:05;8.57;;;4.77;;
5121;SDS011;2563;52.242;7.956;2024-03-02T09:22:31;9.33;;;5.13;;
5121;SDS011;2563;52.242;7.956;2024-03-02T09:24:57;10.10;;;4.70;;
5121;SDS011;2563;52.242;7.956;2024-03-02T09:27:23;9.57;;;5.00;;
5121;SDS011;2563;52.242;7.956;2024-03-02T09:29:48;8.47;;;4.90;;
5121;SDS011;2563;52.242;7.956;2024-03-02T09:32:14;15.10;;;5.20;;
5121;SDS011;2563;52.242;7.956;2024-03-02T09:34:40;9.90;;;5.40;;
5121;SDS011;2563;52.242;7.956;2024-03-02T09:37:05;14.63;;;4.50;;
5121;SDS011;2563;52.242;7.956;2024-03-02T09:39:31;9.37;;;4.70;;
5121;SDS011;2563;52.242;7.956;2024-03-02T09:41:56;9.93;;;4.47;;
5121;SDS011;2563;52.242;7.956;2024-03-02T09:44:23;10.37;;;4.23;;
5121;SDS011;2563;52.242;7.956;2024-03-02T09:46:50;8.50;;;4.50;;
5121;SDS011;2563;52.242;7.956;2024-03-02T09:49:15;8.40;;;4.90;;
5121;SDS011;2563;52.242;7.956;2024-03-02T09:51:42;9.10;;;5.03;;
5121;SDS011;2563;52.242;7.956;2024-03-02T09:54:12;8.17;;;4.13;;
5121;SDS011;2563;52.242;7.956;2024-03-02T09:56:38;8.50;;;4.30;;
5121;SDS011;2563;52.242;7.956;2024-03-02T09:59:04;8.50;;;4.53;;
5121;SDS011;2563;52.242;7.956;2024-03-02T10:01:30;7.40;;;4.90;;
5121;SDS011;2563;52.242;7.956;2024-03-02T10:03:56;7.73;;;4.10;;
5121;SDS011;2563;52.242;7.956;2024-03-02T10:06:25;5.77;;;3.80;;
5121;SDS011;2563;52.242;7.956;2024-03-02T10:08:51;7.70;;;3.90;;
5121;SDS011;2563;52.242;7.956;2024-03-02T10:11:33;7.77;;;4.20;;
5121;SDS011;2563;52.242;7.956;2024-03-02T10:16:37;8.50;;;4.00;;
5121;SDS011;2563;52.242;7.956;2024-03-02T10:21:40;6.40;;;3.60;;
5121;SDS011;2563;52.242;7.956;2024-03-02T10:24:09;6.80;;;3.70;;
5121;SDS011;2563;52.242;7.956;2024-03-02T10:26:34;6.07;;;3.83;;
5121;SDS011;2563;52.242;7.956;2024-03-02T10:29:00;6.07;;;3.47;;
5121;SDS011;2563;52.242;7.956;2024-03-02T10:31:25;6.67;;;3.80;;
5121;SDS011;2563;52.242;7.956;2024-03-02T10:33:54;7.30;;;4.27;;
5121;SDS011;2563;52.242;7.956;2024-03-02T10:36:20;8.17;;;3.90;;
5121;SDS011;2563;52.242;7.956;2024-03-02T10:38:46;7.70;;;4.40;;
5121;SDS011;2563;52.242;7.956;2024-03-02T10:41:16;7.17;;;4.17;;
5121;SDS011;2563;52.242;7.956;2024-03-02T10:43:43;6.60;;;4.33;;
5121;SDS011;2563;52.242;7.956;2024-03-02T10:46:09;6.93;;;4.20;;
5121;SDS011;2563;52.242;7.956;2024-03-02T10:48:36;5.50;;;3.80;;
5121;SDS011;2563;52.242;7.956;2024-03-02T10:51:05;8.57;;;4.53;;
5121;SDS011;2563;52.242;7.956;2024-03-02T10:53:31;9.23;;;4.70;;
5121;SDS011;2563;52.242;7.956;2024-03-02T10:55:58;9.50;;;4.20;;
5121;SDS011;2563;52.242;7.956;2024-03-02T10:58:31;10.17;;;3.83;;
5121;SDS011;2563;52.242;7.956;2024-03-02T11:00:59;6.33;;;4.23;;
5121;SDS011;2563;52.242;7.956;2024-03-02T11:03:29;11.33;;;4.20;;
5121;SDS011;2563;52.242;7.956;2024-03-02T11:05:58;7.60;;;4.13;;
5121;SDS011;2563;52.242;7.956;2024-03-02T11:08:25;7.43;;;4.00;;
5121;SDS011;2563;52.242;7.956;2024-03-02T11:10:57;8.13;;;4.03;;
5121;SDS011;2563;52.242;7.956;2024-03-02T11:13:31;8.53;;;3.77;;
5121;SDS011;2563;52.242;7.956;2024-03-02T11:15:59;8.37;;;4.50;;
5121;SDS011;2563;52.242;7.956;2024-03-02T11:18:31;5.93;;;3.80;;
5121;SDS011;2563;52.242;7.956;2024-03-02T11:20:57;7.20;;;3.63;;
5121;SDS011;2563;52.242;7.956;2024-03-02T11:23:33;8.30;;;3.27;;
5121;SDS011;2563;52.242;7.956;2024-03-02T11:26:18;4.80;;;2.90;;
5121;SDS011;2563;52.242;7.956;2024-03-02T11:28:49;5.23;;;3.47;;
5121;SDS011;2563;52.242;7.956;2024-03-02T11:31:15;4.40;;;3.43;;
5121;SDS011;2563;52.242;7.956;2024-03-02T11:33:41;6.53;;;3.03;;
5121;SDS011;2563;52.242;7.956;2024-03-02T11:36:06;5.53;;;3.17;;
5121;SDS011;2563;52.242;7.956;2024-03-02T11:38:33;9.03;;;3.87;;
5121;SDS011;2563;52.242;7.956;2024-03-02T11:41:00;5.43;;;3.03;;
5121;SDS011;2563;52.242;7.956;2024-03-02T11:43:30;6.10;;;3.00;;
5121;SDS011;2563;52.242;7.956;2024-03-02T11:46:03;6.97;;;2.60;;
5121;SDS011;2563;52.242;7.956;2024-03-02T11:48:32;5.20;;;2.80;;
5121;SDS011;2563;52.242;7.956;2024-03-02T11:51:00;4.77;;;2.50;;
5121;SDS011;2563;52.242;7.956;2024-03-02T11:53:26;5.07;;;2.63;;
5121;SDS011;2563;52.242;7.956;2024-03-02T11:55:55;5.63;;;2.80;;
5121;SDS011;2563;52.242;7.956;2024-03-02T11:58:21;4.10;;;2.43;;
5121;SDS011;2563;52.242;7.956;2024-03-02T12:00:55;4.60;;;2.80;;
5121;SDS011;2563;52.242;7.956;2024-03-02T12:03:22;6.50;;;2.90;;
5121;SDS011;2563;52.242;7.956;2024-03-02T12:05:54;5.20;;;2.50;;
5121;SDS011;2563;52.242;7.956;2024-03-02T12:08:20;5.63;;;2.90;;
5121;SDS011;2563;52.242;7.956;2024-03-02T12:10:56;3.57;;;2.40;;
5121;SDS011;2563;52.242;7.956;2024-03-02T12:13:23;6.30;;;3.07;;
5121;SDS011;2563;52.242;7.956;2024-03-02T12:15:48;5.10;;;2.60;;
5121;SDS011;2563;52.242;7.956;2024-03-02T12:18:19;5.67;;;2.70;;
5121;SDS011;2563;52.242;7.956;2024-03-02T12:20:44;4.47;;;2.90;;
5121;SDS011;2563;52.242;7.956;2024-03-02T12:23:09;8.10;;;4.10;;
5121;SDS011;2563;52.242;7.956;2024-03-02T12:25:35;8.87;;;4.20;;
5121;SDS011;2563;52.242;7.956;2024-03-02T12:28:01;6.77;;;3.50;;
5121;SDS011;2563;52.242;7.956;2024-03-02T12:30:27;5.30;;;2.80;;
5121;SDS011;2563;52.242;7.956;2024-03-02T12:32:55;7.83;;;3.60;;
5121;SDS011;2563;52.242;7.956;2024-03-02T12:35:21;6.30;;;2.77;;
5121;SDS011;2563;52.242;7.956;2024-03-02T12:37:51;4.63;;;2.83;;
5121;SDS011;2563;52.242;7.956;2024-03-02T12:40:17;4.30;;;2.60;;
5121;SDS011;2563;52.242;7.956;2024-03-02T12:42:45;4.67;;;3.00;;
5121;SDS011;2563;52.242;7.956;2024-03-02T12:45:11;5.77;;;2.80;;
5121;SDS011;2563;52.242;7.956;2024-03-02T12:47:39;4.33;;;2.60;;
5121;SDS011;2563;52.242;7.956;2024-03-02T12:50:05;6.37;;;2.77;;
5121;SDS011;2563;52.242;7.956;2024-03-02T12:52:32;4.60;;;2.70;;
5121;SDS011;2563;52.242;7.956;2024-03-02T12:55:00;4.53;;;2.50;;
5121;SDS011;2563;52.242;7.956;2024-03-02T12:57:29;4.47;;;2.37;;
5121;SDS011;2563;52.242;7.956;2024-03-02T13:00:02;4.20;;;2.57;;
5121;SDS011;2563;52.242;7.956;2024-03-02T13:02:34;3.67;;;2.03;;
5121;SDS011;2563;52.242;7.956;2024-03-02T13:05:00;3.87;;;1.93;;
5121;SDS011;2563;52.242;7.956;2024-03-02T13:07:25;4.43;;;1.83;;
5121;SDS011;2563;52.242;7.956;2024-03-02T13:09:51;3.00;;;1.43;;
5121;SDS011;2563;52.242;7.956;2024-03-02T13:12:18;3.33;;;1.73;;
5121;SDS011;2563;52.242;7.956;2024-03-02T13:14:44;3.33;;;1.43;;
5121;SDS011;2563;52.242;7.956;2024-03-02T13:17:12;7.10;;;1.20;;
5121;SDS011;2563;52.242;7.956;2024-03-02T13:19:43;2.70;;;1.50;;
5121;SDS011;2563;52.242;7.956;2024-03-02T13:22:16;5.37;;;3.03;;
5121;SDS011;2563;52.242;7.956;2024-03-02T13:24:41;4.47;;;2.50;;
5121;SDS011;2563;52.242;7.956;2024-03-02T13:27:07;4.97;;;1.80;;
5121;SDS011;2563;52.242;7.956;2024-03-02T13:29:33;3.93;;;1.53;;
5121;SDS011;2563;52.242;7.956;2024-03-02T13:31:59;3.83;;;1.63;;
5121;SDS011;2563;52.242;7.956;2024-03-02T13:34:24;2.90;;;1.37;;
5121;SDS011;2563;52.242;7.956;2024-03-02T13:36:49;2.93;;;1.50;;
5121;SDS011;2563;52.242;7.956;2024-03-02T13:39:15;4.10;;;1.50;;
5121;SDS011;2563;52.242;7.956;2024-03-02T13:41:41;2.77;;;1.47;;
5121;SDS011;2563;52.242;7.956;2024-03-02T13:44:07;3.00;;;1.97;;
5121;SDS011;2563;52.242;7.956;2024-03-02T13:46:32;2.70;;;1.30;;
5121;SDS011;2563;52.242;7.956;2024-03-02T13:48:58;3.33;;;1.53;;
5121;SDS011;2563;52.242;7.956;2024-03-02T13:51:23;3.00;;;1.47;;
5121;SDS011;2563;52.242;7.956;2024-03-02T13:53:50;2.17;;;1.00;;
5121;SDS011;2563;52.242;7.956;2024-03-02T13:56:15;3.60;;;2.03;;
5121;SDS011;2563;52.242;7.956;2024-03-02T13:58:42;7.80;;;1.10;;
5121;SDS011;2563;52.242;7.956;2024-03-02T14:01:08;3.03;;;1.57;;
5121;SDS011;2563;52.242;7.956;2024-03-02T14:03:34;2.20;;;1.20;;
5121;SDS011;2563;52.242;7.956;2024-03-02T14:06:00;2.60;;;1.23;;
5121;SDS011;2563;52.242;7.956;2024-03-02T14:08:25;2.50;;;1.37;;
5121;SDS011;2563;52.242;7.956;2024-03-02T14:10:50;3.70;;;1.40;;
5121;SDS011;2563;52.242;7.956;2024-03-02T14:13:16;2.17;;;1.07;;
5121;SDS011;2563;52.242;7.956;2024-03-02T14:15:41;3.90;;;1.37;;
5121;SDS011;2563;52.242;7.956;2024-03-02T14:18:07;3.43;;;1.13;;
5121;SDS011;2563;52.242;7.956;2024-03-02T14:20:35;2.57;;;1.20;;
5121;SDS011;2563;52.242;7.956;2024-03-02T14:23:01;2.93;;;1.10;;
5121;SDS011;2563;52.242;7.956;2024-03-02T14:25:28;2.37;;;1.20;;
5121;SDS011;2563;52.242;7.956;2024-03-02T14:27:56;1.67;;;0.93;;
5121;SDS011;2563;52.242;7.956;2024-03-02T14:30:22;2.20;;;1.00;;
5121;SDS011;2563;52.242;7.956;2024-03-02T14:32:48;3.10;;;1.30;;
5121;SDS011;2563;52.242;7.956;2024-03-02T14:35:13;1.70;;;0.93;;
5121;SDS011;2563;52.242;7.956;2024-03-02T14:37:40;3.03;;;1.30;;
5121;SDS011;2563;52.242;7.956;2024-03-02T14:40:05;2.57;;;1.00;;
5121;SDS011;2563;52.242;7.956;2024-03-02T14:42:33;7.77;;;3.30;;
5121;SDS011;2563;52.242;7.956;2024-03-02T14:44:59;10.87;;;4.50;;
5121;SDS011;2563;52.242;7.956;2024-03-02T14:47:24;4.77;;;1.73;;
5121;SDS011;2563;52.242;7.956;2024-03-02T14:49:50;13.17;;;5.47;;
5121;SDS011;2563;52.242;7.956;2024-03-02T14:52:16;15.70;;;4.93;;
5121;SDS011;2563;52.242;7.956;2024-03-02T14:54:43;5.97;;;3.10;;
5121;SDS011;2563;52.242;7.956;2024-03-02T14:57:09;4.90;;;2.60;;
5121;SDS011;2563;52.242;7.956;2024-03-02T14:59:35;5.53;;;2.80;;
5121;SDS011;2563;52.242;7.956;2024-03-02T15:02:00;6.50;;;2.90;;
5121;SDS011;2563;52.242;7.956;2024-03-02T15:04:26;5.77;;;3.37;;
5121;SDS011;2563;52.242;7.956;2024-03-02T15:06:52;4.10;;;2.40;;
5121;SDS011;2563;52.242;7.956;2024-03-02T15:09:17;7.77;;;3.20;;
5121;SDS011;2563;52.242;7.956;2024-03-02T15:11:44;5.87;;;3.10;;
5121;SDS011;2563;52.242;7.956;2024-03-02T15:14:11;10.50;;;4.73;;
5121;SDS011;2563;52.242;7.956;2024-03-02T15:16:36;6.77;;;3.60;;
5121;SDS011;2563;52.242;7.956;2024-03-02T15:19:02;7.67;;;3.77;;